Terminal Aerodrome Forecast
Issued by NWS

Home | Current Version | Previous Version | Text Only | Print | Product List | Glossary On
Versions: 1 2 3 4 5 6 7 8 9 10 11
000
FTUS46 KSTO 252300
TAFRDD
TAF
KRDD 252332Z 2600/2624 35010KT P6SM SKC
     FM260300 35006KT P6SM SKC
     FM261700 35011KT P6SM SKC=

USA.gov is the U.S. government's official web portal to all federal, state and local government web resources and services.